Bryce Canyon Airport
KBCE : now visible

Airfield :











YOU CAN JOIN US ON...

 
LOGIN :

Register | Disclaimer

   EN    FR    IT 

 









Legend :    VFR   Marginal VFR   IFR   Intensive IFR   Very Intensive IFR
Visi :
Ceiling :
>= 8 km
>= 3000ft
5 to 8 km
1000 to 3000 ft
1500m to 5 km
500 to 1000 ft
800 to 1500m
200 to 500 ft
< 800m
< 200 ft
Symbols :   Thunderstorms  Fog  Heavy snow  Heavy precipitations  Wind > 20 kt






- Airport Elevation : 7590 ft


KBCE - Bryce Canyon

CURRENT METAR :
  • 020953Z AUTO 27003KT 10SM CLR 07/03 A3026 RMK AO2 SLP133 T00720028

EXPIRED METARs :
  • 020853Z AUTO 26003KT 10SM CLR 08/03 A3026 RMK AO2 SLP127 T00780033 58003
  • 012153Z AUTO 12012G17KT 10SM BKN095 BKN120 25/04 A3026 RMK AO2 SLP126 T02500044
  • 020753Z AUTO 00000KT 10SM CLR 09/05 A3027 RMK AO2 SLP126 T00940050

TAF KBCE
Valid from the 02 at 06:00 until the 03 at 06:00 UTC


020521Z 0206/0306 30005KT P6SM FEW100
FM021700 20014G24KT P6SM BKN100
FM030300 26009KT P6SM SKC
KZLC FIR / North America



MET'MAP, your aeronautical weather chart ! - Copyright ORBIFLY December 2007 - Disclaimer

ORBIFLY MET'MAP TEAM :

Programming & Development : Alexandra Zaïnal
Original concept : Baudouin d'Aumeries
Technical & hardware support : Manuel Goepfert
Assistance : Marc-Olivier Méhu




SOURCES & CREDITS :

   NOAA       Earth
Advisory